Church, United Kingdom
Current Conditions -  °F | °C
As of 5:50 PM on Saturday 22 Nov 2014 (Local Time) from EGCC Reporting Station
Broken Clouds Broken Clouds  
Wind Chill: 52°   Ceiling: 4300
Heat Index: 52°   Visibility: 6mi
Dew Point: 48°   Wind: 7mph
Humidity: 88%   Direction: 180°S
Pressure: 29.91"   Gusts: NA
Location:  53.75°N, 2.39°W
Report Text: EGCC 221750Z 18006KT 9999 FEW034 BKN043 11/09 Q1013
Loading
Personal Weather Stations






























Interactive Weather Map New forecast layout! Learn more

10-Day Weather Forecast

Advertisements
Track Severe Weather on mobile